Time;durP1;ratioP1;P1;durP2;ratioP2;P2;SDS_P1;SDS_P2;PMS_P1;PMS_P2;Temp;Humidity;BMP_temperature;BMP_pressure;BME280_temperature;BME280_humidity;BME280_pressure;Samples;Min_cycle;Max_cycle;Signal;HPM_P1;HPM_P2
2022/11/28 04:49:45;;;;;;;;;;;;;;;10.02;64.55;96682.72;4241090;27;10190;-64
2022/11/28 04:51:54;;;;;;;;;;;;;;;10.35;63.73;96684.78;4236803;27;5781;-64
2022/11/28 04:54:04;;;;;;;;;;;;;;;10.58;63.51;96679.22;4236723;27;5691;-64
2022/11/28 04:56:15;;;;;;;;;;;;;;;10.76;63.28;96682.19;4236844;27;5614;-64
2022/11/28 04:58:24;;;;;;;;;;;;;;;10.90;62.92;96680.41;4239114;27;6413;-64
2022/11/28 05:00:27;;;;;;;;;;;;;;;11.02;62.64;96676.16;4238985;27;5704;-64
2022/11/28 05:02:31;;;;;;;;;;;;;;;11.12;62.44;96675.78;4239115;27;5756;-64
2022/11/28 05:04:37;;;;;;;;;;;;;;;11.19;62.25;96673.97;4236061;27;5632;-64
2022/11/28 05:06:41;;;;;;;;;;;;;;;11.30;62.09;96673.38;4236562;27;5736;-64
2022/11/28 05:08:43;;;;;;;;;;;;;;;11.34;61.62;96674.63;4236248;27;5855;-64
2022/11/28 05:10:47;;;;;;;;;;;;;;;11.40;61.72;96673.00;4238052;27;5823;-65
2022/11/28 05:12:50;;;;;;;;;;;;;;;11.42;61.63;96671.78;4232662;27;5742;-64
2022/11/28 05:14:52;;;;;;;;;;;;;;;11.44;61.40;96669.75;4238320;27;5816;-64
2022/11/28 05:16:55;;;;;;;;;;;;;;;11.49;61.59;96669.16;4237543;27;5696;-65
2022/11/28 05:18:58;;;;;;;;;;;;;;;11.52;61.24;96666.91;4237391;27;5689;-64
2022/11/28 05:21:01;;;;;;;;;;;;;;;11.52;61.17;96669.56;4242443;27;5677;-65
2022/11/28 05:23:05;;;;;;;;;;;;;;;11.55;60.97;96671.81;4236060;27;5732;-65
2022/11/28 05:25:08;;;;;;;;;;;;;;;11.57;61.29;96666.31;4238658;27;5920;-65
2022/11/28 05:27:11;;;;;;;;;;;;;;;11.59;61.05;96673.03;4238031;27;5616;-65
2022/11/28 05:29:14;;;;;;;;;;;;;;;11.62;61.05;96675.25;4237469;27;5747;-65
2022/11/28 05:31:18;;;;;;;;;;;;;;;11.63;60.71;96670.78;4239252;27;5598;-65
2022/11/28 05:33:21;;;;;;;;;;;;;;;11.65;60.68;96669.56;4237988;27;5636;-65
2022/11/28 05:35:24;;;;;;;;;;;;;;;11.65;60.64;96677.50;4236070;27;5689;-65
2022/11/28 05:37:27;;;;;;;;;;;;;;;11.65;60.63;96672.22;4239834;27;5697;-65
2022/11/28 05:39:32;;;;;;;;;;;;;;;11.66;60.35;96673.03;4238629;27;5780;-65
2022/11/28 05:41:35;;;;;;;;;;;;;;;11.68;60.53;96675.50;4237675;27;5621;-65
2022/11/28 05:43:38;;;;;;;;;;;;;;;11.68;60.45;96676.31;4236501;27;5743;-65
2022/11/28 05:45:40;;;;;;;;;;;;;;;11.69;59.97;96683.22;4236487;27;5924;-65
2022/11/28 05:47:43;;;;;;;;;;;;;;;11.70;60.34;96670.81;4237133;27;6294;-65
2022/11/28 05:49:46;;;;;;;;;;;;;;;11.70;60.18;96668.97;4234426;27;5657;-65
2022/11/28 05:51:49;;;;;;;;;;;;;;;11.72;60.21;96666.94;4230190;28;5649;-65
2022/11/28 05:53:52;;;;;;;;;;;;;;;11.73;59.98;96673.03;4230910;28;5590;-65
2022/11/28 05:55:56;;;;;;;;;;;;;;;11.74;60.06;96669.38;4231053;28;5728;-64
2022/11/28 05:57:58;;;;;;;;;;;;;;;11.74;59.79;96669.38;4229541;28;5590;-65
2022/11/28 06:00:02;;;;;;;;;;;;;;;11.75;59.81;96666.50;4231297;28;5617;-65
2022/11/28 06:02:04;;;;;;;;;;;;;;;11.76;59.76;96665.50;4234695;28;5601;-66
2022/11/28 06:04:07;;;;;;;;;;;;;;;11.78;59.67;96668.78;4227790;28;5793;-65
2022/11/28 06:06:13;;;;;;;;;;;;;;;11.78;59.42;96675.88;4228230;28;5743;-65
2022/11/28 06:08:15;;;;;;;;;;;;;;;11.77;59.70;96671.59;4225997;28;5829;-65
2022/11/28 06:10:21;;;;;;;;;;;;;;;11.78;59.46;96671.44;4226724;28;5636;-65
2022/11/28 06:12:25;;;;;;;;;;;;;;;11.78;59.44;96670.59;4221783;28;5791;-65
2022/11/28 06:14:28;;;;;;;;;;;;;;;11.79;59.12;96675.72;4226709;28;6639;-65
2022/11/28 06:16:31;;;;;;;;;;;;;;;11.78;59.27;96676.72;4227456;28;5704;-65
2022/11/28 06:18:34;;;;;;;;;;;;;;;11.79;59.14;96677.53;4225768;28;5583;-64
2022/11/28 06:20:37;;;;;;;;;;;;;;;11.80;59.30;96674.72;4231152;28;7703;-64
2022/11/28 06:22:40;;;;;;;;;;;;;;;11.81;58.94;96672.88;4232200;28;5654;-64
2022/11/28 06:24:43;;;;;;;;;;;;;;;11.82;58.82;96674.50;4231500;28;5665;-65
2022/11/28 06:26:45;;;;;;;;;;;;;;;11.82;58.81;96667.38;4228390;28;5594;-64
2022/11/28 06:28:49;;;;;;;;;;;;;;;11.83;58.75;96669.00;4224888;28;5832;-66
2022/11/28 06:30:52;;;;;;;;;;;;;;;11.86;58.57;96667.78;4223744;28;5625;-65
2022/11/28 06:32:55;;;;;;;;;;;;;;;11.85;58.56;96660.84;4225790;28;5901;-68
2022/11/28 06:34:57;;;;;;;;;;;;;;;11.85;58.43;96669.59;4229980;28;5703;-70
2022/11/28 06:37:00;;;;;;;;;;;;;;;11.85;58.42;96666.16;4225912;28;5761;-69
2022/11/28 06:39:03;;;;;;;;;;;;;;;11.86;58.29;96667.78;4230517;28;5673;-69
2022/11/28 06:41:08;;;;;;;;;;;;;;;11.87;58.27;96666.75;4228476;27;5723;-69
2022/11/28 06:43:11;;;;;;;;;;;;;;;11.86;58.31;96660.63;4231832;28;5618;-69
2022/11/28 06:45:15;;;;;;;;;;;;;;;11.87;58.48;96659.63;4228292;28;5590;-70
2022/11/28 06:47:18;;;;;;;;;;;;;;;11.89;57.96;96657.59;4229896;28;5583;-69
2022/11/28 06:49:21;;;;;;;;;;;;;;;11.91;58.19;96665.34;4231582;28;5685;-69
2022/11/28 06:51:24;;;;;;;;;;;;;;;11.91;58.08;96652.91;4221693;28;5688;-69
2022/11/28 06:53:26;;;;;;;;;;;;;;;11.90;58.09;96653.13;4222309;28;5949;-69
2022/11/28 06:55:33;;;;;;;;;;;;;;;11.89;57.81;96651.47;4234119;28;5618;-69
2022/11/28 06:57:36;;;;;;;;;;;;;;;11.91;58.24;96652.91;4223912;28;5693;-69
2022/11/28 06:59:39;;;;;;;;;;;;;;;11.91;57.89;96654.75;4234329;28;5602;-69
2022/11/28 07:01:44;;;;;;;;;;;;;;;11.93;57.89;96663.28;4217621;28;5719;-69
2022/11/28 07:03:48;;;;;;;;;;;;;;;11.93;57.86;96658.00;4233169;28;5677;-69
2022/11/28 07:05:51;;;;;;;;;;;;;;;11.92;57.75;96657.19;4226868;28;5904;-69
2022/11/28 07:07:54;;;;;;;;;;;;;;;11.93;57.76;96655.34;4230547;28;5617;-69
2022/11/28 07:09:57;;;;;;;;;;;;;;;11.92;57.81;96648.44;4229043;27;5802;-69
2022/11/28 07:11:59;;;;;;;;;;;;;;;11.94;57.85;96649.03;4237909;27;5684;-69
2022/11/28 07:14:02;;;;;;;;;;;;;;;11.94;57.57;96654.31;4225627;27;5095;-68
2022/11/28 07:16:06;;;;;;;;;;;;;;;11.94;57.78;96649.03;4228149;28;5763;-69
2022/11/28 07:18:10;;;;;;;;;;;;;;;11.93;57.46;96648.22;4235352;27;5587;-69
2022/11/28 07:20:14;;;;;;;;;;;;;;;11.94;57.35;96649.03;4251692;27;5614;-69
2022/11/28 07:22:16;;;;;;;;;;;;;;;11.93;57.39;96650.88;4222414;27;5620;-69
2022/11/28 07:24:19;;;;;;;;;;;;;;;11.93;57.35;96664.09;4222399;28;5665;-69
2022/11/28 07:26:22;;;;;;;;;;;;;;;11.93;57.40;96658.81;4238452;27;5686;-69
2022/11/28 07:28:25;;;;;;;;;;;;;;;11.94;57.49;96657.78;4237818;27;5669;-69
2022/11/28 07:30:28;;;;;;;;;;;;;;;11.96;57.40;96657.59;4224486;28;5660;-69
2022/11/28 07:32:30;;;;;;;;;;;;;;;11.95;57.33;96658.59;4225488;28;5831;-69
2022/11/28 07:34:35;;;;;;;;;;;;;;;11.97;57.05;96661.84;4217112;28;5693;-68
2022/11/28 07:36:38;;;;;;;;;;;;;;;12.00;57.11;96660.63;4226103;28;5696;-69
2022/11/28 07:38:41;;;;;;;;;;;;;;;12.00;57.00;96658.78;4218257;28;5792;-69
2022/11/28 07:40:43;;;;;;;;;;;;;;;12.01;56.92;96649.84;4226039;27;5625;-69
2022/11/28 07:42:47;;;;;;;;;;;;;;;12.03;56.85;96660.25;4224252;27;5752;-68
2022/11/28 07:44:50;;;;;;;;;;;;;;;12.03;56.88;96658.41;4235528;27;5593;-68
2022/11/28 07:46:53;;;;;;;;;;;;;;;12.02;56.84;96663.91;4230355;28;5586;-69
2022/11/28 07:48:56;;;;;;;;;;;;;;;12.01;56.78;96664.94;4224174;28;5668;-69
2022/11/28 07:51:04;;;;;;;;;;;;;;;11.99;56.85;96662.47;4217646;28;5613;-69
2022/11/28 07:53:06;;;;;;;;;;;;;;;12.01;56.78;96659.63;4227848;28;5612;-70
2022/11/28 07:55:10;;;;;;;;;;;;;;;12.01;56.88;96668.41;4222082;28;5601;-69
2022/11/28 07:57:12;;;;;;;;;;;;;;;12.01;56.90;96664.94;4230726;27;5587;-69
2022/11/28 07:59:15;;;;;;;;;;;;;;;12.01;56.57;96664.94;4234434;27;5583;-69
2022/11/28 08:01:20;;;;;;;;;;;;;;;12.00;56.66;96669.38;4229737;27;5660;-70
2022/11/28 08:03:23;;;;;;;;;;;;;;;12.01;56.67;96664.94;4233884;27;5665;-70
2022/11/28 08:05:26;;;;;;;;;;;;;;;12.01;56.32;96664.94;4234301;27;5684;-70
2022/11/28 08:07:30;;;;;;;;;;;;;;;12.02;56.58;96664.72;4231285;27;5614;-70
2022/11/28 08:09:33;;;;;;;;;;;;;;;12.03;56.57;96662.88;4240717;27;5621;-70
2022/11/28 08:11:36;;;;;;;;;;;;;;;12.02;56.54;96659.41;4226311;28;5769;-70
2022/11/28 08:13:39;;;;;;;;;;;;;;;12.03;56.27;96663.69;4242204;27;5595;-70
2022/11/28 08:15:42;;;;;;;;;;;;;;;12.04;56.35;96662.69;4247197;27;5708;-70
2022/11/28 08:17:45;;;;;;;;;;;;;;;12.04;56.38;96667.97;4233268;28;5586;-70
2022/11/28 08:19:50;;;;;;;;;;;;;;;12.05;56.24;96666.94;4228160;28;5620;-70
2022/11/28 08:21:55;;;;;;;;;;;;;;;12.06;56.35;96667.78;4231427;28;5594;-70
2022/11/28 08:24:01;;;;;;;;;;;;;;;12.07;55.93;96664.09;4226860;28;6387;-70
2022/11/28 08:26:04;;;;;;;;;;;;;;;12.06;56.12;96668.59;4221791;28;5612;-70
2022/11/28 08:28:07;;;;;;;;;;;;;;;12.08;55.88;96674.47;4226222;28;5261;-69
2022/11/28 08:30:13;;;;;;;;;;;;;;;12.08;56.06;96671.84;4229268;28;7330;-69
2022/11/28 08:32:17;;;;;;;;;;;;;;;12.09;55.94;96665.50;4216905;28;5715;-69
2022/11/28 08:34:19;;;;;;;;;;;;;;;12.13;55.86;96660.63;4224105;28;6455;-69
2022/11/28 08:36:23;;;;;;;;;;;;;;;12.13;56.12;96665.94;4204879;28;5758;-69
2022/11/28 08:38:26;;;;;;;;;;;;;;;12.15;55.75;96664.69;4216322;28;5737;-70
2022/11/28 08:40:30;;;;;;;;;;;;;;;12.17;55.68;96667.97;4216710;28;5740;-69
2022/11/28 08:42:33;;;;;;;;;;;;;;;12.19;55.80;96668.56;4227292;28;5119;-69
2022/11/28 08:44:35;;;;;;;;;;;;;;;12.19;55.61;96663.25;4226196;27;5630;-69
2022/11/28 08:46:38;;;;;;;;;;;;;;;12.21;55.79;96658.56;4231992;28;5609;-69
2022/11/28 08:48:42;;;;;;;;;;;;;;;12.22;55.64;96662.03;4224570;28;5699;-69
2022/11/28 08:50:46;;;;;;;;;;;;;;;12.22;55.70;96662.03;4225282;28;5810;-69
2022/11/28 08:52:50;;;;;;;;;;;;;;;12.23;55.57;96664.50;4216534;28;6354;-69
2022/11/28 08:54:53;;;;;;;;;;;;;;;12.27;55.68;96653.47;4220001;28;5630;-69
2022/11/28 08:56:57;;;;;;;;;;;;;;;12.30;55.69;96666.31;4231358;28;5704;-69
2022/11/28 08:59:00;;;;;;;;;;;;;;;12.32;55.60;96665.06;4226879;28;6512;-68
2022/11/28 09:01:03;;;;;;;;;;;;;;;12.34;55.37;96665.66;4230016;28;5900;-69
2022/11/28 09:03:06;;;;;;;;;;;;;;;12.35;55.42;96661.22;4224907;28;6333;-70
2022/11/28 09:05:10;;;;;;;;;;;;;;;12.34;55.28;96660.38;4216902;28;5604;-70
2022/11/28 09:07:13;;;;;;;;;;;;;;;12.35;55.35;96648.78;4211026;28;5904;-68
2022/11/28 09:09:19;;;;;;;;;;;;;;;12.37;55.00;96656.50;4229391;28;5614;-67
2022/11/28 09:11:23;;;;;;;;;;;;;;;12.36;55.31;96652.25;4233625;28;5729;-68
2022/11/28 09:13:27;;;;;;;;;;;;;;;12.35;55.20;96643.47;4226487;28;5684;-68
2022/11/28 09:15:30;;;;;;;;;;;;;;;12.38;55.26;96639.59;4231747;28;5622;-68
2022/11/28 09:17:33;;;;;;;;;;;;;;;12.39;55.29;96643.84;4233984;27;5681;-68
2022/11/28 09:19:39;;;;;;;;;;;;;;;12.38;55.01;96645.69;4223890;28;5685;-68
2022/11/28 09:21:42;;;;;;;;;;;;;;;12.38;54.96;96644.88;4227695;28;5703;-70
2022/11/28 09:23:45;;;;;;;;;;;;;;;12.38;55.06;96631.63;4225123;28;5594;-69
2022/11/28 09:25:48;;;;;;;;;;;;;;;12.36;54.96;96642.44;4235947;28;5850;-70
2022/11/28 09:27:51;;;;;;;;;;;;;;;12.38;54.88;96642.22;4228179;28;5830;-70
2022/11/28 09:29:55;;;;;;;;;;;;;;;12.39;54.77;96644.69;4227862;28;6548;-70
2022/11/28 09:31:58;;;;;;;;;;;;;;;12.40;54.90;96645.50;4236358;28;5585;-70
2022/11/28 09:34:02;;;;;;;;;;;;;;;12.40;54.99;96648.13;4230900;28;5712;-69
2022/11/28 09:36:06;;;;;;;;;;;;;;;12.41;54.82;96639.97;4220919;28;5665;-70
2022/11/28 09:38:09;;;;;;;;;;;;;;;12.41;55.06;96642.63;4227152;27;5613;-69
2022/11/28 09:40:17;;;;;;;;;;;;;;;12.42;54.97;96638.13;4219374;28;5794;-70
2022/11/28 09:42:28;;;;;;;;;;;;;;;12.41;55.06;96650.56;4227805;28;5613;-70
2022/11/28 09:44:41;;;;;;;;;;;;;;;12.41;55.00;96650.56;4224888;28;5680;-69
2022/11/28 09:46:48;;;;;;;;;;;;;;;12.42;54.84;96641.59;4229027;28;5595;-70
2022/11/28 09:48:54;;;;;;;;;;;;;;;12.40;54.77;96645.50;4226125;28;5617;-70
2022/11/28 09:51:05;;;;;;;;;;;;;;;12.43;54.84;96647.72;4230317;28;5677;-70
2022/11/28 09:53:18;;;;;;;;;;;;;;;12.42;54.94;96649.56;4227624;28;5625;-68
2022/11/28 09:55:31;;;;;;;;;;;;;;;12.42;54.99;96636.28;4227395;28;5742;-69
2022/11/28 09:57:39;;;;;;;;;;;;;;;12.42;54.74;96636.28;4226424;28;5781;-68
2022/11/28 09:59:42;;;;;;;;;;;;;;;12.43;54.75;96626.50;4227938;28;5598;-69
2022/11/28 10:01:56;;;;;;;;;;;;;;;12.43;55.01;96623.84;4235674;28;5609;-69
2022/11/28 10:04:03;;;;;;;;;;;;;;;12.43;54.57;96616.72;4230139;28;5633;-69
2022/11/28 10:06:16;;;;;;;;;;;;;;;12.42;54.52;96619.56;4222846;28;5123;-69
2022/11/28 10:08:26;;;;;;;;;;;;;;;12.42;54.54;96624.88;4225155;28;5606;-70
2022/11/28 10:10:38;;;;;;;;;;;;;;;12.43;54.54;96629.97;4234548;28;5669;-69
2022/11/28 10:12:51;;;;;;;;;;;;;;;12.44;54.63;96638.72;4230301;28;5594;-69
2022/11/28 10:15:03;;;;;;;;;;;;;;;12.43;54.44;96631.81;4233532;28;5661;-70
2022/11/28 10:17:17;;;;;;;;;;;;;;;12.44;54.70;96620.19;4235943;28;5612;-69
2022/11/28 10:19:29;;;;;;;;;;;;;;;12.44;54.64;96628.13;4229932;28;5632;-69
2022/11/28 10:21:55;;;;;;;;;;;;;;;12.46;54.63;96620.81;4227219;28;5605;-70
2022/11/28 10:24:07;;;;;;;;;;;;;;;12.45;54.74;96624.47;4227292;28;5637;-69
2022/11/28 10:26:20;;;;;;;;;;;;;;;12.43;54.45;96613.25;4229560;27;5602;-69
2022/11/28 10:28:26;;;;;;;;;;;;;;;12.43;54.42;96627.31;4232634;28;5617;-70
2022/11/28 10:30:33;;;;;;;;;;;;;;;12.44;54.72;96622.81;4228335;28;5602;-70
2022/11/28 10:32:42;;;;;;;;;;;;;;;12.43;54.36;96615.91;4217833;28;5672;-69
2022/11/28 10:34:51;;;;;;;;;;;;;;;12.43;54.56;96624.66;4226594;27;5649;-70
2022/11/28 10:37:00;;;;;;;;;;;;;;;12.42;54.77;96625.69;4227161;28;5606;-69
2022/11/28 10:39:11;;;;;;;;;;;;;;;12.40;54.75;96621.63;4227197;28;5620;-70
2022/11/28 10:41:20;;;;;;;;;;;;;;;12.41;54.41;96621.41;4231391;28;5599;-70
2022/11/28 10:43:32;;;;;;;;;;;;;;;12.44;54.24;96623.63;4221356;27;5716;-70
2022/11/28 10:45:48;;;;;;;;;;;;;;;12.45;54.64;96616.50;4235201;28;5653;-69
2022/11/28 10:48:05;;;;;;;;;;;;;;;12.47;54.37;96619.78;4228465;28;5824;-69
2022/11/28 10:50:33;;;;;;;;;;;;;;;12.50;54.54;96614.06;4223677;28;5692;-69
2022/11/28 10:52:44;;;;;;;;;;;;;;;12.51;54.40;96616.50;4223544;28;5616;-69
2022/11/28 10:55:04;;;;;;;;;;;;;;;12.53;54.33;96616.28;4226902;28;5688;-69
2022/11/28 10:57:15;;;;;;;;;;;;;;;12.56;54.19;96613.19;4214614;28;5612;-69
2022/11/28 10:59:26;;;;;;;;;;;;;;;12.58;54.25;96608.53;4234732;28;5589;-69
2022/11/28 11:01:32;;;;;;;;;;;;;;;12.57;54.38;96612.19;4231868;28;5917;-70
2022/11/28 11:03:39;;;;;;;;;;;;;;;12.59;54.40;96610.16;4226552;28;5832;-69
2022/11/28 11:05:42;;;;;;;;;;;;;;;12.60;54.21;96605.66;4227013;28;5598;-69
2022/11/28 11:07:51;;;;;;;;;;;;;;;12.61;54.22;96616.06;4226967;28;5610;-69
2022/11/28 11:09:54;;;;;;;;;;;;;;;12.61;54.42;96602.78;4218587;28;5609;-69
2022/11/28 11:12:00;;;;;;;;;;;;;;;12.62;54.30;96606.25;4226790;28;5847;-69
2022/11/28 11:14:04;;;;;;;;;;;;;;;12.64;54.60;96610.31;4235901;27;5681;-69
2022/11/28 11:16:11;;;;;;;;;;;;;;;12.63;54.32;96608.69;4234695;28;5720;-69
2022/11/28 11:18:24;;;;;;;;;;;;;;;12.63;54.38;96611.34;4233828;28;5602;-69
2022/11/28 11:20:35;;;;;;;;;;;;;;;12.64;54.19;96605.00;4222685;28;5814;-69
2022/11/28 11:22:38;;;;;;;;;;;;;;;12.65;54.54;96605.81;4218441;28;5644;-68
2022/11/28 11:24:41;;;;;;;;;;;;;;;12.65;54.26;96603.19;4234483;28;5841;-69
2022/11/28 11:26:46;;;;;;;;;;;;;;;12.65;54.25;96605.81;4226554;28;6855;-69
2022/11/28 11:28:51;;;;;;;;;;;;;;;12.61;54.37;96605.44;4226718;28;5597;-69
2022/11/28 11:30:59;;;;;;;;;;;;;;;12.63;54.27;96611.34;4231158;28;5770;-69
2022/11/28 11:33:06;;;;;;;;;;;;;;;12.62;54.47;96601.75;4222963;28;5838;-69
2022/11/28 11:35:17;;;;;;;;;;;;;;;12.64;54.22;96597.06;4230651;28;5603;-69
2022/11/28 11:37:32;;;;;;;;;;;;;;;12.62;54.53;96599.13;4227363;28;5597;-68
2022/11/28 11:39:48;;;;;;;;;;;;;;;12.64;54.36;96594.41;4224566;28;5632;-69
2022/11/28 11:42:09;;;;;;;;;;;;;;;12.66;54.18;96602.97;4217356;28;5625;-69
2022/11/28 11:44:33;;;;;;;;;;;;;;;12.63;54.19;96598.09;4217941;28;5609;-69
2022/11/28 11:46:50;;;;;;;;;;;;;;;12.66;54.05;96604.81;4219764;28;5713;-69
2022/11/28 11:48:53;;;;;;;;;;;;;;;12.66;53.93;96600.31;4226888;28;5610;-69
2022/11/28 11:50:56;;;;;;;;;;;;;;;12.66;54.16;96599.50;4223474;28;6189;-69
2022/11/28 11:53:06;;;;;;;;;;;;;;;12.68;53.85;96594.78;4226071;28;5875;-69
2022/11/28 11:55:15;;;;;;;;;;;;;;;12.72;54.04;96588.88;4222057;28;5681;-70
2022/11/28 11:57:17;;;;;;;;;;;;;;;12.74;53.67;96594.78;4232361;28;5719;-69
2022/11/28 11:59:47;;;;;;;;;;;;;;;12.75;53.80;96583.13;4221994;28;5602;-69
2022/11/28 12:01:55;;;;;;;;;;;;;;;12.74;53.59;96586.81;4223135;28;5632;-70
2022/11/28 12:04:01;;;;;;;;;;;;;;;12.77;53.73;96585.56;4227845;28;5610;-69
2022/11/28 12:06:28;;;;;;;;;;;;;;;12.79;53.58;96581.69;4234617;28;5590;-69
2022/11/28 12:08:35;;;;;;;;;;;;;;;12.80;53.50;96582.53;4231058;28;5804;-69
2022/11/28 12:10:45;;;;;;;;;;;;;;;12.76;53.58;96579.44;4217528;28;5625;-69
2022/11/28 12:12:48;;;;;;;;;;;;;;;12.78;53.41;96587.19;4223693;28;5605;-69
2022/11/28 12:14:51;;;;;;;;;;;;;;;12.79;53.73;96578.22;4235230;27;5150;-69
2022/11/28 12:17:06;;;;;;;;;;;;;;;12.78;53.41;96581.91;4230794;27;8086;-69
2022/11/28 12:19:43;;;;;;;;;;;;;;;12.82;53.41;96583.94;4222031;28;6703;-68
2022/11/28 12:22:02;;;;;;;;;;;;;;;12.85;53.39;96592.47;4224758;27;5598;-68
2022/11/28 12:24:12;;;;;;;;;;;;;;;12.87;53.43;96591.25;4227715;28;5812;-70
2022/11/28 12:26:20;;;;;;;;;;;;;;;12.89;53.37;96589.19;4229767;28;6780;-70
2022/11/28 12:28:40;;;;;;;;;;;;;;;12.90;53.02;96592.66;4223467;28;5616;-70
2022/11/28 12:30:56;;;;;;;;;;;;;;;12.89;53.27;96583.88;4217333;28;5695;-70
2022/11/28 12:33:10;;;;;;;;;;;;;;;12.90;53.03;96582.03;4225809;28;5617;-70
2022/11/28 12:35:27;;;;;;;;;;;;;;;12.90;53.18;96585.50;4225729;28;5634;-69
2022/11/28 12:37:44;;;;;;;;;;;;;;;12.91;52.98;96575.69;4231702;28;5602;-69
2022/11/28 12:40:16;;;;;;;;;;;;;;;12.92;52.89;96582.66;4220817;28;5690;-69
2022/11/28 12:42:45;;;;;;;;;;;;;;;12.92;52.96;96582.66;4230531;27;5609;-65
2022/11/28 12:44:59;;;;;;;;;;;;;;;12.93;52.96;96585.09;4225632;27;5590;-66
2022/11/28 12:47:13;;;;;;;;;;;;;;;12.93;52.85;96573.66;4228319;27;5617;-66
2022/11/28 12:49:19;;;;;;;;;;;;;;;12.94;52.67;96580.59;4228204;28;5629;-66
2022/11/28 12:51:36;;;;;;;;;;;;;;;12.95;52.66;96576.91;4230949;27;5789;-66
2022/11/28 12:53:55;;;;;;;;;;;;;;;12.96;52.58;96568.75;4233035;27;5848;-66
2022/11/28 12:56:07;;;;;;;;;;;;;;;12.96;52.88;96582.00;4214612;28;5616;-66
2022/11/28 12:58:19;;;;;;;;;;;;;;;12.95;52.91;96576.91;4222745;27;5725;-66
2022/11/28 13:00:25;;;;;;;;;;;;;;;12.96;52.97;96584.66;4232417;27;5583;-66
2022/11/28 13:02:38;;;;;;;;;;;;;;;12.95;52.70;96582.22;4227043;28;5681;-67
2022/11/28 13:05:03;;;;;;;;;;;;;;;12.96;52.82;96583.84;4219902;27;5716;-66
2022/11/28 13:07:12;;;;;;;;;;;;;;;12.96;52.89;96578.53;4222304;28;5613;-66
2022/11/28 13:09:30;;;;;;;;;;;;;;;12.98;52.56;96573.84;4225780;27;5747;-66
2022/11/28 13:11:49;;;;;;;;;;;;;;;12.99;52.62;96578.09;4226816;27;5629;-65
2022/11/28 13:14:03;;;;;;;;;;;;;;;12.97;52.60;96577.50;4218352;27;5732;-64
2022/11/28 13:16:16;;;;;;;;;;;;;;;12.99;52.66;96580.75;4230620;27;5650;-65
2022/11/28 13:18:40;;;;;;;;;;;;;;;12.99;52.91;96578.09;4232795;27;5677;-69
2022/11/28 13:20:46;;;;;;;;;;;;;;;12.99;52.61;96580.75;4229446;27;6412;-69
2022/11/28 13:23:07;;;;;;;;;;;;;;;12.99;52.85;96584.22;4226974;27;5801;-68
2022/11/28 13:25:22;;;;;;;;;;;;;;;13.00;52.96;96579.72;4209123;28;5835;-67
2022/11/28 13:27:35;;;;;;;;;;;;;;;12.99;52.56;96584.22;4226493;27;5122;-69
2022/11/28 13:29:44;;;;;;;;;;;;;;;12.98;52.89;96587.09;4225134;27;5983;-69
2022/11/28 13:31:51;;;;;;;;;;;;;;;12.96;52.84;96583.84;4228081;28;5749;-67
2022/11/28 13:33:57;;;;;;;;;;;;;;;12.98;52.74;96582.59;4230863;27;5793;-63
2022/11/28 13:36:01;;;;;;;;;;;;;;;12.99;52.66;96581.56;4231877;27;5763;-62
2022/11/28 13:38:13;;;;;;;;;;;;;;;12.98;52.66;96590.56;4229672;27;5625;-64
2022/11/28 13:40:45;;;;;;;;;;;;;;;13.00;52.84;96590.34;4225371;27;5732;-62
2022/11/28 13:42:56;;;;;;;;;;;;;;;13.00;52.82;96590.34;4231676;27;5688;-62
2022/11/28 13:45:21;;;;;;;;;;;;;;;12.96;52.65;96581.19;4231075;27;5834;-62
2022/11/28 13:47:35;;;;;;;;;;;;;;;12.97;52.81;96596.09;4231255;27;5741;-63
2022/11/28 13:49:38;;;;;;;;;;;;;;;12.97;52.87;96586.28;4196601;28;5737;-63
2022/11/28 13:51:41;;;;;;;;;;;;;;;12.96;52.65;96584.66;4201095;28;5706;-63
2022/11/28 13:53:45;;;;;;;;;;;;;;;12.97;52.74;96593.44;4197793;28;5801;-63
2022/11/28 13:55:50;;;;;;;;;;;;;;;12.96;52.84;96586.50;4200686;28;5777;-64
2022/11/28 13:57:55;;;;;;;;;;;;;;;12.97;52.77;96590.78;4196013;28;5705;-63
2022/11/28 14:00:22;;;;;;;;;;;;;;;12.98;52.84;96597.72;4195370;28;6120;-62
2022/11/28 14:02:35;;;;;;;;;;;;;;;12.98;52.54;96597.72;4197915;28;5664;-65
2022/11/28 14:04:44;;;;;;;;;;;;;;;12.96;52.73;96605.06;4191680;28;5711;-63
2022/11/28 14:06:49;;;;;;;;;;;;;;;12.96;52.75;96597.94;4191755;28;5766;-63
2022/11/28 14:09:04;;;;;;;;;;;;;;;12.97;52.78;96596.91;4193805;28;5781;-63
2022/11/28 14:11:38;;;;;;;;;;;;;;;12.98;52.69;96600.38;4194401;28;6405;-62
2022/11/28 14:13:57;;;;;;;;;;;;;;;12.98;52.41;96605.66;4199941;28;5690;-63
2022/11/28 14:16:14;;;;;;;;;;;;;;;12.99;52.40;96604.66;4198059;28;5692;-62
2022/11/28 14:18:33;;;;;;;;;;;;;;;12.99;52.45;96608.13;4190263;28;5829;-63
2022/11/28 14:21:00;;;;;;;;;;;;;;;13.01;52.47;96603.41;4196601;28;5769;-62
2022/11/28 14:23:19;;;;;;;;;;;;;;;13.03;52.38;96605.88;4200709;28;5722;-61
2022/11/28 14:25:26;;;;;;;;;;;;;;;13.02;52.68;96609.53;4192359;28;5765;-63
2022/11/28 14:27:33;;;;;;;;;;;;;;;13.01;52.77;96607.91;4196146;28;5781;-62
2022/11/28 14:29:41;;;;;;;;;;;;;;;13.02;52.59;96614.81;4188351;28;5725;-63
2022/11/28 14:31:46;;;;;;;;;;;;;;;13.02;52.54;96609.53;4192883;28;5714;-65
2022/11/28 14:34:37;;;;;;;;;;;;;;;13.02;52.89;96613.00;4196055;28;6634;-64
2022/11/28 14:36:40;;;;;;;;;;;;;;;13.03;52.88;96611.19;4188564;28;5802;-64
2022/11/28 14:38:47;;;;;;;;;;;;;;;13.02;52.99;96606.88;4192501;28;5879;-64
2022/11/28 14:41:01;;;;;;;;;;;;;;;12.99;52.83;96617.91;4186290;28;6877;-66
2022/11/28 14:43:27;;;;;;;;;;;;;;;13.01;52.82;96615.84;4197807;28;5875;-65
2022/11/28 14:45:43;;;;;;;;;;;;;;;13.02;53.07;96618.31;4189347;28;5763;-65
2022/11/28 14:48:16;;;;;;;;;;;;;;;13.03;53.12;96616.47;4194595;28;5929;-63
2022/11/28 14:50:50;;;;;;;;;;;;;;;13.04;53.11;96623.41;4221421;27;5111;-65
2022/11/28 14:53:37;;;;;;;;;;;;;;;13.02;52.92;96620.97;4224958;28;5632;-65
2022/11/28 14:55:40;;;;;;;;;;;;;;;13.01;52.92;96632.59;4227533;27;5490;-64
2022/11/28 14:57:54;;;;;;;;;;;;;;;13.00;53.35;96630.16;4225496;27;7719;-63
2022/11/28 15:00:02;;;;;;;;;;;;;;;13.00;53.18;96627.50;4222027;28;5843;-64
2022/11/28 15:02:30;;;;;;;;;;;;;;;13.00;53.29;96632.81;4228143;27;5703;-65
2022/11/28 15:04:53;;;;;;;;;;;;;;;12.99;53.52;96632.00;4226165;27;5689;-65
2022/11/28 15:06:59;;;;;;;;;;;;;;;13.00;53.26;96638.94;4229168;28;5775;-64
2022/11/28 15:09:07;;;;;;;;;;;;;;;13.00;53.34;96638.94;4213417;28;5624;-65
2022/11/28 15:11:21;;;;;;;;;;;;;;;13.00;53.34;96644.22;4230443;27;5973;-64
2022/11/28 15:13:49;;;;;;;;;;;;;;;12.97;53.65;96636.69;4223934;27;6998;-64
2022/11/28 15:15:53;;;;;;;;;;;;;;;12.98;53.32;96642.81;4223950;28;5594;-63
2022/11/28 15:18:00;;;;;;;;;;;;;;;12.96;53.69;96642.22;4231315;27;5681;-64
2022/11/28 15:20:09;;;;;;;;;;;;;;;12.95;53.68;96638.75;4224091;27;5800;-64
2022/11/28 15:22:30;;;;;;;;;;;;;;;12.93;53.51;96643.47;4223470;27;5844;-62
2022/11/28 15:24:35;;;;;;;;;;;;;;;12.94;53.60;96646.94;4228111;27;5641;-62
2022/11/28 15:26:38;;;;;;;;;;;;;;;12.93;53.94;96650.63;4226603;27;5100;-62
2022/11/28 15:28:42;;;;;;;;;;;;;;;12.92;53.73;96646.34;4228523;27;5789;-61
2022/11/28 15:30:46;;;;;;;;;;;;;;;12.90;54.15;96651.81;4225607;27;5685;-62
2022/11/28 15:32:49;;;;;;;;;;;;;;;12.90;54.15;96654.47;4220947;27;5590;-62
2022/11/28 15:34:58;;;;;;;;;;;;;;;12.90;54.12;96653.66;4224261;27;5816;-62
2022/11/28 15:37:04;;;;;;;;;;;;;;;12.91;54.18;96661.44;4225805;27;5815;-62
2022/11/28 15:39:27;;;;;;;;;;;;;;;12.89;54.20;96663.47;4223237;27;5669;-64
2022/11/28 15:41:31;;;;;;;;;;;;;;;12.88;54.11;96663.69;4226027;28;5680;-62
2022/11/28 15:43:37;;;;;;;;;;;;;;;12.85;54.32;96664.94;4226590;27;5610;-64
2022/11/28 15:45:41;;;;;;;;;;;;;;;12.82;54.29;96668.00;4225454;27;5156;-64
2022/11/28 15:47:45;;;;;;;;;;;;;;;12.80;54.47;96672.72;4226449;27;6284;-65
2022/11/28 15:50:00;;;;;;;;;;;;;;;12.76;54.51;96664.34;4197774;28;5694;-64
2022/11/28 15:52:05;;;;;;;;;;;;;;;12.73;54.86;96670.06;4196943;28;5713;-67
2022/11/28 15:54:30;;;;;;;;;;;;;;;12.73;54.86;96678.03;4191307;28;5678;-65
2022/11/28 15:56:33;;;;;;;;;;;;;;;12.72;54.70;96663.13;4196925;28;5729;-64
2022/11/28 15:58:36;;;;;;;;;;;;;;;12.70;54.74;96670.50;4196694;28;5793;-67
2022/11/28 16:00:43;;;;;;;;;;;;;;;12.69;54.79;96676.81;4198806;28;5781;-63
2022/11/28 16:02:47;;;;;;;;;;;;;;;12.68;55.21;96667.22;4199094;28;5800;-64
2022/11/28 16:05:04;;;;;;;;;;;;;;;12.66;55.14;96676.41;4195193;28;5922;-68
2022/11/28 16:07:10;;;;;;;;;;;;;;;12.66;55.52;96676.41;4191704;28;5702;-65